Hawera, New Zealand
Current Conditions -  °F | °C
As of 10:00 PM on Wednesday 26 Nov 2014 (Local Time) from NZWN Reporting Station
Clear Clear  
Wind Chill: 61°   Ceiling: Unl
Heat Index: 61°   Visibility: 6mi
Dew Point: 46°   Wind: 20mph
Humidity: 59%   Direction: 330°NNW
Pressure: 29.74"   Gusts: 31mph
Location:  39.59°S, 174.28°E
Report Text: NZWN 261000Z AUTO 33017G27KT 9999 NCD 16/08 Q1007 NOSIG
Loading
Personal Weather Stations






























Interactive Weather Map New forecast layout! Learn more

10-Day Weather Forecast

Advertisements
Track Severe Weather on mobile